CheckWX is a tool to help pilots better visualize weather data.  It is not intended as a substitute for an official pre-flight weather briefing.

06:27:19 UTC

KTOI METAR
Troy Municipal at N Kenneth Campbell Field Airport
Troy, Alabama, USA
Current

34 mins ago

KTOI 190553Z AUTO 12008KT 10SM FEW075 FEW090 26/22 A3003 RMK AO2 SLP161 T02560217 10289 20244 403830194 51010 $
Observed
Sep-19 @ 05:53 UTC
Wind
  • 120° at 8 KTS
Visibility
10 SM
Flight Rules
VFR
Cloud Levels
  • Few at 7,500' AGL
  • Few at 9,000' AGL
Temperature
26°C / 79°F
Dewpoint
22°C / 72°F
Humidity
79%
Altimeter
30.03" Hg
Pressure
1016.92 hPa
Previous

2 hours ago

KTOI 190453Z AUTO 10006KT 10SM BKN100 26/22 A3002 RMK AO2 SLP157 T02610222 $
Observed
Sep-19 @ 04:53 UTC
Wind
  • 100° at 6 KTS
Visibility
10 SM
Flight Rules
VFR
Cloud Levels
  • Broken at 10,000' AGL
Temperature
26°C / 79°F
Dewpoint
22°C / 72°F
Humidity
79%
Altimeter
30.02" Hg
Pressure
1016.62 hPa
Previous

3 hours ago

KTOI 190353Z AUTO 08004KT 10SM FEW090 27/22 A3001 RMK AO2 SLP157 T02670217 $
Observed
Sep-19 @ 03:53 UTC
Wind
  • 080° at 4 KTS
Visibility
10 SM
Flight Rules
VFR
Cloud Levels
  • Few at 9,000' AGL
Temperature
27°C / 81°F
Dewpoint
22°C / 72°F
Heat Index
29°C / 85°F
Humidity
74%
Altimeter
30.01" Hg
Pressure
1016.22 hPa